sensor_id;sensor_type;location;lat;lon;timestamp;P1;durP1;ratioP1;P2;durP2;ratioP2
72711;SDS011;60828;40.292;17.998;2022-07-30T00:00:00;11.05;;;6.00;;
72711;SDS011;60828;40.292;17.998;2022-07-30T00:02:25;12.47;;;5.50;;
72711;SDS011;60828;40.292;17.998;2022-07-30T00:04:51;10.70;;;5.83;;
72711;SDS011;60828;40.292;17.998;2022-07-30T00:07:16;10.38;;;5.90;;
72711;SDS011;60828;40.292;17.998;2022-07-30T00:09:42;14.43;;;6.63;;
72711;SDS011;60828;40.292;17.998;2022-07-30T00:12:08;10.82;;;6.68;;
72711;SDS011;60828;40.292;17.998;2022-07-30T00:14:34;10.50;;;5.78;;
72711;SDS011;60828;40.292;17.998;2022-07-30T00:17:03;14.03;;;6.47;;
72711;SDS011;60828;40.292;17.998;2022-07-30T00:19:29;9.95;;;6.20;;
72711;SDS011;60828;40.292;17.998;2022-07-30T00:21:55;11.98;;;6.40;;
72711;SDS011;60828;40.292;17.998;2022-07-30T00:24:21;10.93;;;6.17;;
72711;SDS011;60828;40.292;17.998;2022-07-30T00:26:47;14.23;;;7.78;;
72711;SDS011;60828;40.292;17.998;2022-07-30T00:29:13;15.82;;;7.93;;
72711;SDS011;60828;40.292;17.998;2022-07-30T00:31:39;15.17;;;7.90;;
72711;SDS011;60828;40.292;17.998;2022-07-30T00:34:04;13.80;;;7.80;;
72711;SDS011;60828;40.292;17.998;2022-07-30T00:36:30;13.55;;;7.80;;
72711;SDS011;60828;40.292;17.998;2022-07-30T00:38:56;15.20;;;8.77;;
72711;SDS011;60828;40.292;17.998;2022-07-30T00:41:21;14.57;;;8.90;;
72711;SDS011;60828;40.292;17.998;2022-07-30T00:43:47;16.98;;;10.05;;
72711;SDS011;60828;40.292;17.998;2022-07-30T00:46:13;15.07;;;10.47;;
72711;SDS011;60828;40.292;17.998;2022-07-30T00:48:39;18.00;;;9.93;;
72711;SDS011;60828;40.292;17.998;2022-07-30T00:51:06;15.93;;;10.85;;
72711;SDS011;60828;40.292;17.998;2022-07-30T00:53:34;17.87;;;11.57;;
72711;SDS011;60828;40.292;17.998;2022-07-30T00:56:00;20.15;;;11.90;;
72711;SDS011;60828;40.292;17.998;2022-07-30T00:58:27;20.08;;;12.90;;
72711;SDS011;60828;40.292;17.998;2022-07-30T01:00:52;20.95;;;12.40;;
72711;SDS011;60828;40.292;17.998;2022-07-30T01:03:18;19.87;;;11.83;;
72711;SDS011;60828;40.292;17.998;2022-07-30T01:05:45;15.75;;;11.40;;
72711;SDS011;60828;40.292;17.998;2022-07-30T01:08:12;20.00;;;11.77;;
72711;SDS011;60828;40.292;17.998;2022-07-30T01:10:38;13.93;;;9.90;;
72711;SDS011;60828;40.292;17.998;2022-07-30T01:13:04;12.25;;;8.68;;
72711;SDS011;60828;40.292;17.998;2022-07-30T01:15:33;12.35;;;7.75;;
72711;SDS011;60828;40.292;17.998;2022-07-30T01:18:00;13.40;;;7.65;;
72711;SDS011;60828;40.292;17.998;2022-07-30T01:20:31;13.60;;;7.40;;
72711;SDS011;60828;40.292;17.998;2022-07-30T01:30:26;19.08;;;10.00;;
72711;SDS011;60828;40.292;17.998;2022-07-30T01:32:55;17.63;;;10.23;;
72711;SDS011;60828;40.292;17.998;2022-07-30T01:35:23;14.73;;;8.18;;
72711;SDS011;60828;40.292;17.998;2022-07-30T01:37:52;10.90;;;7.13;;
72711;SDS011;60828;40.292;17.998;2022-07-30T01:40:20;11.52;;;7.47;;
72711;SDS011;60828;40.292;17.998;2022-07-30T01:42:48;9.68;;;6.75;;
72711;SDS011;60828;40.292;17.998;2022-07-30T01:45:21;10.68;;;6.50;;
72711;SDS011;60828;40.292;17.998;2022-07-30T01:47:49;12.52;;;6.97;;
72711;SDS011;60828;40.292;17.998;2022-07-30T01:50:24;11.00;;;7.00;;
72711;SDS011;60828;40.292;17.998;2022-07-30T01:52:51;10.13;;;6.53;;
72711;SDS011;60828;40.292;17.998;2022-07-30T01:55:20;12.75;;;6.95;;
72711;SDS011;60828;40.292;17.998;2022-07-30T01:57:49;14.43;;;8.55;;
72711;SDS011;60828;40.292;17.998;2022-07-30T02:00:16;16.45;;;8.68;;
72711;SDS011;60828;40.292;17.998;2022-07-30T02:02:42;13.73;;;8.60;;
72711;SDS011;60828;40.292;17.998;2022-07-30T02:05:09;16.05;;;9.30;;
72711;SDS011;60828;40.292;17.998;2022-07-30T02:07:45;15.23;;;9.27;;
72711;SDS011;60828;40.292;17.998;2022-07-30T02:12:49;12.88;;;9.05;;
72711;SDS011;60828;40.292;17.998;2022-07-30T02:15:31;12.90;;;9.30;;
72711;SDS011;60828;40.292;17.998;2022-07-30T02:18:10;13.88;;;8.95;;
72711;SDS011;60828;40.292;17.998;2022-07-30T02:20:41;14.38;;;9.93;;
72711;SDS011;60828;40.292;17.998;2022-07-30T02:23:10;13.60;;;9.73;;
72711;SDS011;60828;40.292;17.998;2022-07-30T02:25:40;15.77;;;9.50;;
72711;SDS011;60828;40.292;17.998;2022-07-30T02:28:11;13.37;;;8.47;;
72711;SDS011;60828;40.292;17.998;2022-07-30T02:30:42;14.13;;;8.43;;
72711;SDS011;60828;40.292;17.998;2022-07-30T02:33:25;14.40;;;8.68;;
72711;SDS011;60828;40.292;17.998;2022-07-30T02:35:53;15.77;;;7.97;;
72711;SDS011;60828;40.292;17.998;2022-07-30T02:38:20;15.65;;;8.77;;
72711;SDS011;60828;40.292;17.998;2022-07-30T02:40:49;11.37;;;7.27;;
72711;SDS011;60828;40.292;17.998;2022-07-30T02:43:15;14.57;;;8.10;;
72711;SDS011;60828;40.292;17.998;2022-07-30T02:45:42;16.73;;;8.70;;
72711;SDS011;60828;40.292;17.998;2022-07-30T02:48:11;20.95;;;9.23;;
72711;SDS011;60828;40.292;17.998;2022-07-30T02:50:38;18.55;;;10.20;;
72711;SDS011;60828;40.292;17.998;2022-07-30T02:53:07;27.53;;;11.70;;
72711;SDS011;60828;40.292;17.998;2022-07-30T02:55:34;21.98;;;12.35;;
72711;SDS011;60828;40.292;17.998;2022-07-30T02:58:03;28.95;;;13.07;;
72711;SDS011;60828;40.292;17.998;2022-07-30T03:00:30;26.58;;;13.15;;
72711;SDS011;60828;40.292;17.998;2022-07-30T03:03:00;28.38;;;13.02;;
72711;SDS011;60828;40.292;17.998;2022-07-30T03:05:29;28.80;;;12.90;;
72711;SDS011;60828;40.292;17.998;2022-07-30T03:07:56;22.13;;;12.40;;
72711;SDS011;60828;40.292;17.998;2022-07-30T03:10:24;25.17;;;12.05;;
72711;SDS011;60828;40.292;17.998;2022-07-30T03:12:51;25.17;;;11.35;;
72711;SDS011;60828;40.292;17.998;2022-07-30T03:15:18;26.35;;;11.40;;
72711;SDS011;60828;40.292;17.998;2022-07-30T03:17:45;16.90;;;10.17;;
72711;SDS011;60828;40.292;17.998;2022-07-30T03:20:19;20.27;;;10.80;;
72711;SDS011;60828;40.292;17.998;2022-07-30T03:22:50;19.77;;;9.95;;
72711;SDS011;60828;40.292;17.998;2022-07-30T03:25:23;15.27;;;8.70;;
72711;SDS011;60828;40.292;17.998;2022-07-30T03:27:52;14.27;;;8.90;;
72711;SDS011;60828;40.292;17.998;2022-07-30T03:30:24;15.73;;;8.55;;
72711;SDS011;60828;40.292;17.998;2022-07-30T03:32:51;15.38;;;8.82;;
72711;SDS011;60828;40.292;17.998;2022-07-30T03:35:18;14.85;;;7.68;;
72711;SDS011;60828;40.292;17.998;2022-07-30T03:37:52;13.37;;;8.03;;
72711;SDS011;60828;40.292;17.998;2022-07-30T03:40:18;11.35;;;7.85;;
72711;SDS011;60828;40.292;17.998;2022-07-30T03:42:46;13.93;;;8.75;;
72711;SDS011;60828;40.292;17.998;2022-07-30T03:45:14;13.10;;;8.93;;
72711;SDS011;60828;40.292;17.998;2022-07-30T03:47:40;12.90;;;8.77;;
72711;SDS011;60828;40.292;17.998;2022-07-30T03:50:08;13.90;;;8.77;;
72711;SDS011;60828;40.292;17.998;2022-07-30T03:52:37;20.23;;;12.90;;
72711;SDS011;60828;40.292;17.998;2022-07-30T03:55:05;15.25;;;9.73;;
72711;SDS011;60828;40.292;17.998;2022-07-30T03:57:32;16.27;;;9.45;;
72711;SDS011;60828;40.292;17.998;2022-07-30T03:59:58;13.97;;;9.00;;
72711;SDS011;60828;40.292;17.998;2022-07-30T04:02:23;17.65;;;9.30;;
72711;SDS011;60828;40.292;17.998;2022-07-30T04:04:51;15.57;;;9.50;;
72711;SDS011;60828;40.292;17.998;2022-07-30T04:07:16;13.95;;;9.30;;
72711;SDS011;60828;40.292;17.998;2022-07-30T04:09:42;16.13;;;9.97;;
72711;SDS011;60828;40.292;17.998;2022-07-30T04:12:08;18.00;;;9.35;;
72711;SDS011;60828;40.292;17.998;2022-07-30T04:14:40;18.90;;;10.03;;
72711;SDS011;60828;40.292;17.998;2022-07-30T04:17:17;13.05;;;8.95;;
72711;SDS011;60828;40.292;17.998;2022-07-30T04:19:50;14.43;;;9.27;;
72711;SDS011;60828;40.292;17.998;2022-07-30T04:22:19;14.23;;;9.30;;
72711;SDS011;60828;40.292;17.998;2022-07-30T04:24:48;11.68;;;7.80;;
72711;SDS011;60828;40.292;17.998;2022-07-30T04:27:16;14.87;;;8.67;;
72711;SDS011;60828;40.292;17.998;2022-07-30T04:29:43;14.25;;;8.52;;
72711;SDS011;60828;40.292;17.998;2022-07-30T04:32:09;12.70;;;8.80;;
72711;SDS011;60828;40.292;17.998;2022-07-30T04:34:36;13.15;;;8.27;;
72711;SDS011;60828;40.292;17.998;2022-07-30T04:37:12;17.05;;;9.25;;
72711;SDS011;60828;40.292;17.998;2022-07-30T04:39:40;22.47;;;9.20;;
72711;SDS011;60828;40.292;17.998;2022-07-30T04:42:06;13.80;;;9.07;;
72711;SDS011;60828;40.292;17.998;2022-07-30T04:44:31;14.60;;;9.27;;
72711;SDS011;60828;40.292;17.998;2022-07-30T04:46:58;15.63;;;9.27;;
72711;SDS011;60828;40.292;17.998;2022-07-30T04:49:24;13.30;;;9.27;;
72711;SDS011;60828;40.292;17.998;2022-07-30T04:51:51;13.77;;;8.10;;
72711;SDS011;60828;40.292;17.998;2022-07-30T04:54:18;16.90;;;8.13;;
72711;SDS011;60828;40.292;17.998;2022-07-30T04:56:46;14.20;;;8.02;;
72711;SDS011;60828;40.292;17.998;2022-07-30T04:59:13;18.42;;;8.15;;
72711;SDS011;60828;40.292;17.998;2022-07-30T05:01:41;14.60;;;9.05;;
72711;SDS011;60828;40.292;17.998;2022-07-30T05:04:10;16.98;;;8.25;;
72711;SDS011;60828;40.292;17.998;2022-07-30T05:06:38;14.10;;;8.30;;
72711;SDS011;60828;40.292;17.998;2022-07-30T05:09:04;16.88;;;8.35;;
72711;SDS011;60828;40.292;17.998;2022-07-30T05:11:30;16.48;;;9.10;;
72711;SDS011;60828;40.292;17.998;2022-07-30T05:13:56;16.70;;;8.43;;
72711;SDS011;60828;40.292;17.998;2022-07-30T05:16:22;17.75;;;8.93;;
72711;SDS011;60828;40.292;17.998;2022-07-30T05:18:47;14.23;;;9.50;;
72711;SDS011;60828;40.292;17.998;2022-07-30T05:21:14;14.70;;;8.13;;
72711;SDS011;60828;40.292;17.998;2022-07-30T05:23:40;14.73;;;8.68;;
72711;SDS011;60828;40.292;17.998;2022-07-30T05:26:05;12.63;;;7.70;;
72711;SDS011;60828;40.292;17.998;2022-07-30T05:28:32;12.25;;;7.78;;
72711;SDS011;60828;40.292;17.998;2022-07-30T05:30:58;13.60;;;6.93;;
72711;SDS011;60828;40.292;17.998;2022-07-30T05:33:23;12.50;;;7.20;;
72711;SDS011;60828;40.292;17.998;2022-07-30T05:35:49;13.53;;;7.80;;
72711;SDS011;60828;40.292;17.998;2022-07-30T05:38:15;10.27;;;6.82;;
72711;SDS011;60828;40.292;17.998;2022-07-30T05:40:41;12.27;;;6.20;;
72711;SDS011;60828;40.292;17.998;2022-07-30T05:43:07;11.83;;;6.23;;
72711;SDS011;60828;40.292;17.998;2022-07-30T05:45:32;13.27;;;6.47;;
72711;SDS011;60828;40.292;17.998;2022-07-30T05:47:58;11.97;;;5.63;;
72711;SDS011;60828;40.292;17.998;2022-07-30T05:50:23;9.90;;;5.17;;
72711;SDS011;60828;40.292;17.998;2022-07-30T05:52:49;12.82;;;5.70;;
72711;SDS011;60828;40.292;17.998;2022-07-30T05:55:16;12.40;;;5.88;;
72711;SDS011;60828;40.292;17.998;2022-07-30T05:57:42;14.03;;;5.47;;
72711;SDS011;60828;40.292;17.998;2022-07-30T06:00:08;10.90;;;5.40;;
72711;SDS011;60828;40.292;17.998;2022-07-30T06:02:35;10.13;;;5.90;;
72711;SDS011;60828;40.292;17.998;2022-07-30T06:05:01;8.50;;;6.05;;
72711;SDS011;60828;40.292;17.998;2022-07-30T06:09:52;11.83;;;5.50;;
72711;SDS011;60828;40.292;17.998;2022-07-30T06:12:17;8.67;;;5.83;;
72711;SDS011;60828;40.292;17.998;2022-07-30T06:14:43;10.05;;;5.82;;
72711;SDS011;60828;40.292;17.998;2022-07-30T06:17:09;7.20;;;5.40;;
72711;SDS011;60828;40.292;17.998;2022-07-30T06:19:34;9.65;;;5.82;;
72711;SDS011;60828;40.292;17.998;2022-07-30T06:24:25;10.57;;;5.57;;
72711;SDS011;60828;40.292;17.998;2022-07-30T06:26:51;11.07;;;5.43;;
72711;SDS011;60828;40.292;17.998;2022-07-30T06:29:16;11.63;;;5.47;;
72711;SDS011;60828;40.292;17.998;2022-07-30T06:31:42;7.73;;;5.50;;
72711;SDS011;60828;40.292;17.998;2022-07-30T06:34:07;8.95;;;5.40;;
72711;SDS011;60828;40.292;17.998;2022-07-30T06:36:33;7.33;;;5.07;;
72711;SDS011;60828;40.292;17.998;2022-07-30T06:38:58;9.73;;;5.70;;
72711;SDS011;60828;40.292;17.998;2022-07-30T06:41:24;8.18;;;5.07;;
72711;SDS011;60828;40.292;17.998;2022-07-30T06:43:49;8.77;;;5.67;;
72711;SDS011;60828;40.292;17.998;2022-07-30T06:46:15;8.73;;;5.68;;
72711;SDS011;60828;40.292;17.998;2022-07-30T06:48:41;7.63;;;5.65;;
72711;SDS011;60828;40.292;17.998;2022-07-30T06:51:07;8.60;;;5.73;;
72711;SDS011;60828;40.292;17.998;2022-07-30T06:53:33;9.43;;;5.53;;
72711;SDS011;60828;40.292;17.998;2022-07-30T06:55:59;7.93;;;5.53;;
72711;SDS011;60828;40.292;17.998;2022-07-30T06:58:24;7.20;;;5.10;;
72711;SDS011;60828;40.292;17.998;2022-07-30T07:00:50;7.77;;;5.20;;
72711;SDS011;60828;40.292;17.998;2022-07-30T07:03:16;7.97;;;5.50;;
72711;SDS011;60828;40.292;17.998;2022-07-30T07:05:41;7.53;;;5.10;;
72711;SDS011;60828;40.292;17.998;2022-07-30T07:08:06;9.77;;;5.33;;
72711;SDS011;60828;40.292;17.998;2022-07-30T07:10:32;8.13;;;5.47;;
72711;SDS011;60828;40.292;17.998;2022-07-30T07:12:58;8.47;;;5.13;;
72711;SDS011;60828;40.292;17.998;2022-07-30T07:15:24;8.63;;;5.43;;
72711;SDS011;60828;40.292;17.998;2022-07-30T07:17:50;7.53;;;4.75;;
72711;SDS011;60828;40.292;17.998;2022-07-30T07:20:15;8.43;;;5.10;;
72711;SDS011;60828;40.292;17.998;2022-07-30T07:22:41;7.60;;;5.17;;
72711;SDS011;60828;40.292;17.998;2022-07-30T07:34:48;9.17;;;5.30;;
72711;SDS011;60828;40.292;17.998;2022-07-30T07:37:14;7.90;;;5.07;;
72711;SDS011;60828;40.292;17.998;2022-07-30T07:39:40;8.55;;;5.38;;
72711;SDS011;60828;40.292;17.998;2022-07-30T07:42:06;7.97;;;5.37;;
72711;SDS011;60828;40.292;17.998;2022-07-30T07:44:32;12.48;;;5.00;;
72711;SDS011;60828;40.292;17.998;2022-07-30T07:46:57;10.90;;;4.95;;
72711;SDS011;60828;40.292;17.998;2022-07-30T07:49:23;6.88;;;4.97;;
72711;SDS011;60828;40.292;17.998;2022-07-30T07:51:48;11.03;;;5.57;;
72711;SDS011;60828;40.292;17.998;2022-07-30T07:54:14;7.67;;;4.90;;
72711;SDS011;60828;40.292;17.998;2022-07-30T07:56:40;11.95;;;5.50;;
72711;SDS011;60828;40.292;17.998;2022-07-30T07:59:05;8.18;;;5.30;;
72711;SDS011;60828;40.292;17.998;2022-07-30T08:01:31;7.63;;;4.90;;
72711;SDS011;60828;40.292;17.998;2022-07-30T08:03:56;13.10;;;5.30;;
72711;SDS011;60828;40.292;17.998;2022-07-30T08:06:22;10.02;;;5.55;;
72711;SDS011;60828;40.292;17.998;2022-07-30T08:08:47;8.93;;;5.50;;
72711;SDS011;60828;40.292;17.998;2022-07-30T08:11:34;9.27;;;5.37;;
72711;SDS011;60828;40.292;17.998;2022-07-30T08:13:59;8.52;;;4.78;;
72711;SDS011;60828;40.292;17.998;2022-07-30T08:16:24;9.83;;;4.97;;
72711;SDS011;60828;40.292;17.998;2022-07-30T08:18:50;11.38;;;5.25;;
72711;SDS011;60828;40.292;17.998;2022-07-30T08:21:15;12.30;;;5.83;;
72711;SDS011;60828;40.292;17.998;2022-07-30T08:23:41;15.60;;;5.90;;
72711;SDS011;60828;40.292;17.998;2022-07-30T08:26:06;11.43;;;5.82;;
72711;SDS011;60828;40.292;17.998;2022-07-30T08:28:32;10.53;;;5.40;;
72711;SDS011;60828;40.292;17.998;2022-07-30T08:35:48;10.73;;;5.40;;
72711;SDS011;60828;40.292;17.998;2022-07-30T08:40:39;9.90;;;5.50;;
72711;SDS011;60828;40.292;17.998;2022-07-30T08:43:05;8.90;;;5.20;;
72711;SDS011;60828;40.292;17.998;2022-07-30T09:05:06;11.47;;;5.37;;
72711;SDS011;60828;40.292;17.998;2022-07-30T09:07:32;11.63;;;5.50;;
72711;SDS011;60828;40.292;17.998;2022-07-30T09:09:58;10.48;;;6.50;;
72711;SDS011;60828;40.292;17.998;2022-07-30T09:20:21;13.95;;;5.60;;
72711;SDS011;60828;40.292;17.998;2022-07-30T09:22:54;10.38;;;5.82;;
72711;SDS011;60828;40.292;17.998;2022-07-30T09:25:37;7.70;;;5.50;;
72711;SDS011;60828;40.292;17.998;2022-07-30T09:28:05;6.72;;;5.32;;
72711;SDS011;60828;40.292;17.998;2022-07-30T09:33:08;9.55;;;5.35;;
72711;SDS011;60828;40.292;17.998;2022-07-30T09:35:34;11.43;;;5.97;;
72711;SDS011;60828;40.292;17.998;2022-07-30T09:37:59;8.40;;;5.10;;
72711;SDS011;60828;40.292;17.998;2022-07-30T09:40:25;10.00;;;5.33;;
72711;SDS011;60828;40.292;17.998;2022-07-30T09:47:55;8.17;;;4.77;;
72711;SDS011;60828;40.292;17.998;2022-07-30T09:50:28;12.27;;;5.30;;
72711;SDS011;60828;40.292;17.998;2022-07-30T09:53:03;7.72;;;5.28;;
72711;SDS011;60828;40.292;17.998;2022-07-30T09:55:33;8.95;;;5.35;;
72711;SDS011;60828;40.292;17.998;2022-07-30T09:58:04;10.07;;;5.18;;
72711;SDS011;60828;40.292;17.998;2022-07-30T10:00:34;10.13;;;5.32;;
72711;SDS011;60828;40.292;17.998;2022-07-30T10:05:27;9.07;;;4.85;;
72711;SDS011;60828;40.292;17.998;2022-07-30T10:07:57;10.95;;;5.20;;
72711;SDS011;60828;40.292;17.998;2022-07-30T10:10:25;10.27;;;5.03;;
72711;SDS011;60828;40.292;17.998;2022-07-30T10:12:54;8.70;;;4.97;;
72711;SDS011;60828;40.292;17.998;2022-07-30T10:15:23;9.40;;;4.73;;
72711;SDS011;60828;40.292;17.998;2022-07-30T10:17:51;13.55;;;4.80;;
72711;SDS011;60828;40.292;17.998;2022-07-30T10:20:18;7.40;;;4.68;;
72711;SDS011;60828;40.292;17.998;2022-07-30T10:22:44;10.13;;;5.10;;
72711;SDS011;60828;40.292;17.998;2022-07-30T10:25:10;8.57;;;4.90;;
72711;SDS011;60828;40.292;17.998;2022-07-30T10:27:36;8.13;;;4.67;;
72711;SDS011;60828;40.292;17.998;2022-07-30T10:30:03;11.85;;;4.45;;
72711;SDS011;60828;40.292;17.998;2022-07-30T10:32:30;7.25;;;4.53;;
72711;SDS011;60828;40.292;17.998;2022-07-30T10:34:56;9.95;;;4.20;;
72711;SDS011;60828;40.292;17.998;2022-07-30T10:37:23;8.07;;;4.20;;
72711;SDS011;60828;40.292;17.998;2022-07-30T10:39:52;6.90;;;4.20;;
72711;SDS011;60828;40.292;17.998;2022-07-30T10:47:24;7.97;;;4.63;;
72711;SDS011;60828;40.292;17.998;2022-07-30T10:52:47;10.02;;;4.30;;
72711;SDS011;60828;40.292;17.998;2022-07-30T10:55:32;6.57;;;3.80;;
72711;SDS011;60828;40.292;17.998;2022-07-30T16:09:06;8.63;;;4.88;;
72711;SDS011;60828;40.292;17.998;2022-07-30T16:11:32;8.60;;;5.90;;
72711;SDS011;60828;40.292;17.998;2022-07-30T16:13:58;9.97;;;5.17;;
72711;SDS011;60828;40.292;17.998;2022-07-30T16:16:24;10.80;;;5.10;;
72711;SDS011;60828;40.292;17.998;2022-07-30T16:18:50;11.00;;;4.80;;
72711;SDS011;60828;40.292;17.998;2022-07-30T16:21:16;8.03;;;5.40;;
72711;SDS011;60828;40.292;17.998;2022-07-30T16:23:42;10.73;;;5.20;;
72711;SDS011;60828;40.292;17.998;2022-07-30T16:26:09;11.73;;;5.00;;
72711;SDS011;60828;40.292;17.998;2022-07-30T16:28:34;7.57;;;4.60;;
72711;SDS011;60828;40.292;17.998;2022-07-30T16:31:00;7.10;;;4.63;;
72711;SDS011;60828;40.292;17.998;2022-07-30T16:33:25;8.23;;;4.53;;
72711;SDS011;60828;40.292;17.998;2022-07-30T16:35:51;10.07;;;5.30;;
72711;SDS011;60828;40.292;17.998;2022-07-30T16:38:19;9.95;;;4.95;;
72711;SDS011;60828;40.292;17.998;2022-07-30T16:40:47;7.57;;;5.10;;
72711;SDS011;60828;40.292;17.998;2022-07-30T16:43:13;9.75;;;4.78;;
72711;SDS011;60828;40.292;17.998;2022-07-30T16:45:38;7.95;;;4.75;;
72711;SDS011;60828;40.292;17.998;2022-07-30T16:48:05;7.63;;;4.80;;
72711;SDS011;60828;40.292;17.998;2022-07-30T16:50:35;8.75;;;4.93;;
72711;SDS011;60828;40.292;17.998;2022-07-30T16:53:01;8.83;;;4.80;;
72711;SDS011;60828;40.292;17.998;2022-07-30T16:55:27;11.32;;;4.75;;
72711;SDS011;60828;40.292;17.998;2022-07-30T16:57:52;10.20;;;4.67;;
72711;SDS011;60828;40.292;17.998;2022-07-30T17:00:18;14.75;;;4.70;;
72711;SDS011;60828;40.292;17.998;2022-07-30T17:02:44;8.53;;;4.37;;
72711;SDS011;60828;40.292;17.998;2022-07-30T17:05:09;7.27;;;4.50;;
72711;SDS011;60828;40.292;17.998;2022-07-30T17:07:35;12.50;;;4.40;;
72711;SDS011;60828;40.292;17.998;2022-07-30T17:10:00;7.17;;;4.00;;
72711;SDS011;60828;40.292;17.998;2022-07-30T17:12:26;6.85;;;4.38;;
72711;SDS011;60828;40.292;17.998;2022-07-30T17:14:51;7.53;;;4.17;;
72711;SDS011;60828;40.292;17.998;2022-07-30T17:17:17;8.80;;;4.17;;
72711;SDS011;60828;40.292;17.998;2022-07-30T17:19:43;8.53;;;4.60;;
72711;SDS011;60828;40.292;17.998;2022-07-30T17:22:08;10.65;;;4.93;;
72711;SDS011;60828;40.292;17.998;2022-07-30T17:24:34;13.27;;;5.03;;
72711;SDS011;60828;40.292;17.998;2022-07-30T17:26:59;8.70;;;4.60;;
72711;SDS011;60828;40.292;17.998;2022-07-30T17:29:25;8.45;;;4.82;;
72711;SDS011;60828;40.292;17.998;2022-07-30T17:31:51;11.20;;;4.87;;
72711;SDS011;60828;40.292;17.998;2022-07-30T17:34:16;10.37;;;6.10;;
72711;SDS011;60828;40.292;17.998;2022-07-30T17:36:45;11.38;;;5.70;;
72711;SDS011;60828;40.292;17.998;2022-07-30T17:39:12;11.90;;;6.55;;
72711;SDS011;60828;40.292;17.998;2022-07-30T17:41:39;12.48;;;7.03;;
72711;SDS011;60828;40.292;17.998;2022-07-30T17:44:05;10.05;;;6.65;;
72711;SDS011;60828;40.292;17.998;2022-07-30T17:46:30;10.07;;;6.83;;
72711;SDS011;60828;40.292;17.998;2022-07-30T17:48:58;11.82;;;6.47;;
72711;SDS011;60828;40.292;17.998;2022-07-30T17:51:26;15.27;;;6.80;;
72711;SDS011;60828;40.292;17.998;2022-07-30T17:53:52;13.87;;;6.60;;
72711;SDS011;60828;40.292;17.998;2022-07-30T17:56:18;11.43;;;6.70;;
72711;SDS011;60828;40.292;17.998;2022-07-30T17:58:43;16.07;;;7.03;;
72711;SDS011;60828;40.292;17.998;2022-07-30T18:01:09;11.65;;;7.18;;
72711;SDS011;60828;40.292;17.998;2022-07-30T18:03:36;9.73;;;7.30;;
72711;SDS011;60828;40.292;17.998;2022-07-30T18:06:03;10.80;;;6.83;;
72711;SDS011;60828;40.292;17.998;2022-07-30T18:08:29;13.32;;;7.90;;
72711;SDS011;60828;40.292;17.998;2022-07-30T18:10:57;13.45;;;7.38;;
72711;SDS011;60828;40.292;17.998;2022-07-30T18:13:23;13.93;;;7.05;;
72711;SDS011;60828;40.292;17.998;2022-07-30T18:15:49;8.75;;;6.88;;
72711;SDS011;60828;40.292;17.998;2022-07-30T18:18:16;9.67;;;7.17;;
72711;SDS011;60828;40.292;17.998;2022-07-30T18:20:42;10.70;;;7.10;;
72711;SDS011;60828;40.292;17.998;2022-07-30T18:23:08;12.43;;;6.57;;
72711;SDS011;60828;40.292;17.998;2022-07-30T18:25:34;10.77;;;6.90;;
72711;SDS011;60828;40.292;17.998;2022-07-30T18:28:03;11.75;;;6.65;;
72711;SDS011;60828;40.292;17.998;2022-07-30T19:06:55;11.17;;;7.80;;
72711;SDS011;60828;40.292;17.998;2022-07-30T19:09:21;14.32;;;8.32;;
72711;SDS011;60828;40.292;17.998;2022-07-30T19:11:46;11.18;;;8.20;;
72711;SDS011;60828;40.292;17.998;2022-07-30T19:14:12;10.90;;;7.93;;
72711;SDS011;60828;40.292;17.998;2022-07-30T19:16:39;14.18;;;9.20;;
72711;SDS011;60828;40.292;17.998;2022-07-30T19:19:06;13.65;;;8.00;;
72711;SDS011;60828;40.292;17.998;2022-07-30T19:21:31;12.30;;;8.88;;
72711;SDS011;60828;40.292;17.998;2022-07-30T19:23:57;13.77;;;8.60;;
72711;SDS011;60828;40.292;17.998;2022-07-30T19:26:25;12.15;;;9.05;;
72711;SDS011;60828;40.292;17.998;2022-07-30T19:28:51;12.83;;;8.03;;
72711;SDS011;60828;40.292;17.998;2022-07-30T19:31:17;11.35;;;8.10;;
72711;SDS011;60828;40.292;17.998;2022-07-30T19:33:42;14.43;;;9.13;;
72711;SDS011;60828;40.292;17.998;2022-07-30T19:36:08;14.27;;;8.48;;
72711;SDS011;60828;40.292;17.998;2022-07-30T19:38:34;12.53;;;8.27;;
72711;SDS011;60828;40.292;17.998;2022-07-30T21:21:01;8.00;;;5.50;;
72711;SDS011;60828;40.292;17.998;2022-07-30T21:23:26;7.90;;;5.00;;
72711;SDS011;60828;40.292;17.998;2022-07-30T21:25:52;7.88;;;5.00;;
72711;SDS011;60828;40.292;17.998;2022-07-30T21:28:18;10.85;;;4.65;;
72711;SDS011;60828;40.292;17.998;2022-07-30T21:54:58;9.40;;;4.77;;
72711;SDS011;60828;40.292;17.998;2022-07-30T21:57:24;9.30;;;4.70;;
72711;SDS011;60828;40.292;17.998;2022-07-30T22:41:03;7.47;;;5.20;;
72711;SDS011;60828;40.292;17.998;2022-07-30T22:43:28;8.33;;;5.77;;
72711;SDS011;60828;40.292;17.998;2022-07-30T22:45:55;8.45;;;5.35;;
72711;SDS011;60828;40.292;17.998;2022-07-30T23:30:00;8.85;;;5.28;;
72711;SDS011;60828;40.292;17.998;2022-07-30T23:32:26;9.00;;;5.70;;
72711;SDS011;60828;40.292;17.998;2022-07-30T23:34:52;8.43;;;5.55;;
72711;SDS011;60828;40.292;17.998;2022-07-30T23:37:17;12.40;;;5.67;;
72711;SDS011;60828;40.292;17.998;2022-07-30T23:39:43;10.65;;;5.80;;
72711;SDS011;60828;40.292;17.998;2022-07-30T23:42:09;8.48;;;5.43;;
72711;SDS011;60828;40.292;17.998;2022-07-30T23:44:34;7.73;;;5.13;;
72711;SDS011;60828;40.292;17.998;2022-07-30T23:47:00;8.17;;;5.27;;
72711;SDS011;60828;40.292;17.998;2022-07-30T23:49:25;9.53;;;5.50;;
72711;SDS011;60828;40.292;17.998;2022-07-30T23:51:51;7.97;;;5.63;;
72711;SDS011;60828;40.292;17.998;2022-07-30T23:54:17;10.18;;;5.60;;
72711;SDS011;60828;40.292;17.998;2022-07-30T23:56:43;9.55;;;6.30;;
72711;SDS011;60828;40.292;17.998;2022-07-30T23:59:09;8.20;;;5.53;;
